Time;durP1;ratioP1;P1;durP2;ratioP2;P2;SDS_P1;SDS_P2;PMS_P1;PMS_P2;Temp;Humidity;BMP_temperature;BMP_pressure;BME280_temperature;BME280_humidity;BME280_pressure;Samples;Min_cycle;Max_cycle;Signal;HPM_P1;HPM_P2
2021/07/27 00:00:33;;;;;;;;;;;18.00;99.90;;;;;;5031565;28;20036;-69
2021/07/27 00:03:00;;;;;;;48.55;27.73;;;17.90;99.90;;;;;;5031880;28;20275;-70
2021/07/27 00:05:26;;;;;;;50.00;28.73;;;17.90;99.90;;;;;;5030182;28;20033;-70
2021/07/27 00:07:51;;;;;;;50.55;30.23;;;17.90;99.90;;;;;;5029028;28;20057;-70
2021/07/27 00:10:17;;;;;;;46.15;28.65;;;17.90;99.90;;;;;;5030696;28;20091;-69
2021/07/27 00:12:43;;;;;;;53.97;31.38;;;18.00;99.90;;;;;;5027165;28;20039;-70
2021/07/27 00:15:09;;;;;;;55.53;31.05;;;17.90;99.90;;;;;;5031170;28;20385;-70
2021/07/27 00:17:34;;;;;;;56.53;31.60;;;17.90;99.90;;;;;;5029829;28;20119;-70
2021/07/27 00:20:00;;;;;;;53.63;29.98;;;18.00;99.90;;;;;;5031019;28;20479;-70
2021/07/27 00:22:25;;;;;;;58.58;32.40;;;18.00;99.90;;;;;;5029480;28;20030;-70
2021/07/27 00:24:53;;;;;;;55.60;32.95;;;18.00;99.90;;;;;;5032599;28;20064;-70
2021/07/27 00:27:19;;;;;;;56.90;33.97;;;18.00;99.90;;;;;;5030787;28;20538;-70
2021/07/27 00:29:45;;;;;;;58.65;33.67;;;18.00;99.90;;;;;;5031084;28;20037;-70
2021/07/27 00:32:10;;;;;;;66.90;35.05;;;18.00;99.90;;;;;;5024433;28;20036;-70
2021/07/27 00:34:36;;;;;;;55.85;32.80;;;18.00;99.90;;;;;;5029205;28;20029;-70
2021/07/27 00:37:01;;;;;;;60.25;34.20;;;18.10;99.90;;;;;;5031353;28;20087;-70
2021/07/27 00:39:27;;;;;;;59.92;33.72;;;18.00;99.90;;;;;;5031556;28;20032;-69
2021/07/27 00:41:52;;;;;;;64.78;34.53;;;18.10;99.90;;;;;;5030867;28;20369;-70
2021/07/27 00:44:18;;;;;;;64.25;34.97;;;18.10;99.90;;;;;;5032731;28;20042;-70
2021/07/27 00:46:43;;;;;;;67.38;36.03;;;18.10;99.90;;;;;;5029072;28;20029;-69
2021/07/27 00:49:09;;;;;;;62.58;35.10;;;18.00;99.90;;;;;;5032514;28;20053;-70
2021/07/27 00:51:34;;;;;;;63.92;35.42;;;18.00;99.90;;;;;;5026330;28;20124;-70
2021/07/27 00:54:00;;;;;;;68.95;38.08;;;18.00;99.90;;;;;;5030630;28;20078;-70
2021/07/27 00:56:26;;;;;;;66.97;38.22;;;18.00;99.90;;;;;;5030099;28;20498;-69
2021/07/27 00:58:53;;;;;;;69.90;38.42;;;18.00;99.90;;;;;;5031431;28;20029;-70
2021/07/27 01:01:19;;;;;;;65.53;34.13;;;18.00;99.90;;;;;;5027327;28;20538;-70
2021/07/27 01:03:45;;;;;;;69.57;37.05;;;18.00;99.90;;;;;;5032501;28;20049;-70
2021/07/27 01:06:10;;;;;;;68.45;39.58;;;18.00;99.90;;;;;;5030197;28;20480;-70
2021/07/27 01:08:38;;;;;;;69.07;39.50;;;18.00;99.90;;;;;;5032104;28;20120;-70
2021/07/27 01:11:04;;;;;;;66.18;38.53;;;18.00;99.90;;;;;;5029101;28;20105;-70
2021/07/27 01:13:30;;;;;;;72.75;41.97;;;18.00;99.90;;;;;;5035967;28;20041;-70
2021/07/27 01:16:01;;;;;;;73.45;41.33;;;18.00;99.90;;;;;;5025898;28;20029;-70
2021/07/27 01:18:29;;;;;;;69.90;40.35;;;17.90;99.90;;;;;;5035061;28;20041;-70
2021/07/27 01:37:38;;;;;;;72.45;41.72;;;17.80;99.90;;;;;;5034294;28;20052;-70
2021/07/27 01:40:06;;;;;;;74.68;42.38;;;17.80;99.90;;;;;;5032655;28;20104;-70
2021/07/27 01:42:39;;;;;;;73.72;42.28;;;17.70;99.90;;;;;;5031248;28;20061;-70
2021/07/27 01:45:10;;;;;;;67.80;40.20;;;17.70;99.90;;;;;;5024160;28;20087;-69
2021/07/27 01:47:36;;;;;;;74.53;43.47;;;17.70;99.90;;;;;;5031710;28;20481;-70
2021/07/27 01:50:01;;;;;;;78.20;43.88;;;17.70;99.90;;;;;;5035238;28;20044;-70
2021/07/27 01:52:27;;;;;;;75.05;43.30;;;17.60;99.90;;;;;;5031921;28;20084;-70
2021/07/27 01:54:55;;;;;;;82.78;45.28;;;17.60;99.90;;;;;;5034097;28;20060;-69
2021/07/27 01:57:22;;;;;;;85.20;45.25;;;17.50;99.90;;;;;;5026442;28;20026;-70
2021/07/27 01:59:58;;;;;;;86.70;47.75;;;17.50;99.90;;;;;;5032287;28;20055;-70
2021/07/27 02:02:24;;;;;;;74.28;44.72;;;17.40;99.90;;;;;;5032470;28;20028;-70
2021/07/27 02:04:50;;;;;;;78.35;45.13;;;17.40;99.90;;;;;;5031469;28;20033;-70
2021/07/27 02:07:15;;;;;;;86.68;46.28;;;17.30;99.90;;;;;;5027128;28;20111;-70
2021/07/27 02:09:43;;;;;;;85.82;46.15;;;17.30;99.90;;;;;;5034257;28;20132;-70
2021/07/27 02:12:17;;;;;;;82.93;46.10;;;17.30;99.90;;;;;;5033034;28;20018;-70
2021/07/27 02:17:34;;;;;;;89.95;48.38;;;17.20;99.90;;;;;;5034032;28;20507;-70
2021/07/27 02:20:00;;;;;;;89.10;47.50;;;17.10;99.90;;;;;;5034684;28;20033;-69
2021/07/27 02:22:26;;;;;;;87.38;46.30;;;17.10;99.90;;;;;;5029792;28;20539;-70
2021/07/27 02:24:52;;;;;;;83.55;46.83;;;17.00;99.90;;;;;;5034662;28;20063;-70
2021/07/27 02:27:17;;;;;;;89.43;47.42;;;17.00;99.90;;;;;;5032576;28;20069;-70
2021/07/27 02:29:46;;;;;;;82.90;46.53;;;17.00;99.90;;;;;;5033992;28;20029;-70
2021/07/27 02:32:12;;;;;;;93.93;47.90;;;16.90;99.90;;;;;;5027111;28;20481;-69
2021/07/27 02:34:37;;;;;;;87.05;45.88;;;16.90;99.90;;;;;;5034285;28;20044;-69
2021/07/27 02:37:03;;;;;;;87.38;47.35;;;16.80;99.90;;;;;;5023826;28;20037;-70
2021/07/27 02:39:31;;;;;;;89.78;47.33;;;16.80;99.90;;;;;;5034011;28;20431;-69
2021/07/27 02:41:56;;;;;;;91.18;46.80;;;16.70;99.90;;;;;;5029541;28;20488;-69
2021/07/27 02:44:22;;;;;;;93.63;47.35;;;16.70;99.90;;;;;;5014726;28;20034;-70
2021/07/27 02:46:47;;;;;;;96.63;49.63;;;16.60;99.90;;;;;;5029079;28;20032;-69
2021/07/27 02:49:13;;;;;;;96.80;48.22;;;16.60;99.90;;;;;;5033187;28;20477;-69
2021/07/27 02:51:38;;;;;;;95.40;48.78;;;16.60;99.90;;;;;;5032587;28;20052;-69
2021/07/27 02:54:07;;;;;;;100.63;48.78;;;16.50;99.90;;;;;;5032558;28;20071;-69
2021/07/27 02:56:32;;;;;;;87.22;46.45;;;16.40;99.90;;;;;;5029276;28;20033;-69
2021/07/27 02:58:57;;;;;;;96.13;50.50;;;16.50;99.90;;;;;;5029874;28;20132;-69
2021/07/27 03:01:23;;;;;;;94.13;47.35;;;16.40;99.90;;;;;;5029027;28;20033;-70
2021/07/27 03:03:49;;;;;;;96.75;48.35;;;16.40;99.90;;;;;;5033465;28;20034;-70
2021/07/27 03:06:16;;;;;;;96.75;48.40;;;16.40;99.90;;;;;;5031191;28;20379;-69
2021/07/27 03:09:03;;;;;;;101.00;48.25;;;16.30;99.90;;;;;;5029986;28;20108;-70
2021/07/27 03:11:29;;;;;;;88.00;45.55;;;16.30;99.90;;;;;;5028582;28;20542;-70
2021/07/27 03:13:55;;;;;;;87.07;45.60;;;16.30;99.90;;;;;;5030525;28;20502;-70
2021/07/27 03:16:23;;;;;;;83.45;44.03;;;16.30;99.90;;;;;;5031795;28;20037;-70
2021/07/27 03:18:51;;;;;;;85.78;44.97;;;16.30;99.90;;;;;;5033523;28;20420;-70
2021/07/27 03:21:26;;;;;;;81.68;43.58;;;16.30;99.90;;;;;;5030861;28;20057;-70
2021/07/27 03:23:52;;;;;;;86.07;43.38;;;16.20;99.90;;;;;;5033061;28;20064;-70
2021/07/27 03:26:19;;;;;;;82.15;41.72;;;16.20;99.90;;;;;;5031225;28;20033;-69
2021/07/27 03:28:45;;;;;;;84.10;42.75;;;16.20;99.90;;;;;;5030545;28;20029;-70
2021/07/27 03:31:11;;;;;;;72.18;41.33;;;16.30;99.90;;;;;;5023936;28;20113;-70
2021/07/27 03:33:37;;;;;;;79.45;42.38;;;16.20;99.90;;;;;;5026545;28;20469;-70
2021/07/27 03:36:04;;;;;;;81.88;43.10;;;16.30;99.90;;;;;;5026799;28;20026;-70
2021/07/27 03:38:30;;;;;;;83.18;44.67;;;16.30;99.90;;;;;;5031918;28;20561;-69
2021/07/27 03:41:06;;;;;;;74.05;40.75;;;16.30;99.90;;;;;;5028660;28;20078;-69
2021/07/27 03:43:32;;;;;;;79.55;41.72;;;16.20;99.90;;;;;;5032775;28;20116;-69
2021/07/27 03:45:58;;;;;;;74.22;40.63;;;16.20;99.90;;;;;;5028993;28;20125;-69
2021/07/27 03:48:24;;;;;;;79.03;40.13;;;16.20;99.90;;;;;;5028123;28;20044;-70
2021/07/27 03:50:50;;;;;;;82.65;42.03;;;16.10;99.90;;;;;;5027571;28;20026;-70
2021/07/27 03:53:16;;;;;;;77.50;39.97;;;16.10;99.90;;;;;;5029546;28;20431;-69
2021/07/27 03:55:42;;;;;;;78.05;41.25;;;16.10;99.90;;;;;;5030691;28;20048;-70
2021/07/27 03:58:08;;;;;;;69.35;38.03;;;16.10;99.90;;;;;;5030280;28;20396;-70
2021/07/27 04:00:34;;;;;;;73.43;39.25;;;16.00;99.90;;;;;;5031837;28;20029;-70
2021/07/27 04:03:03;;;;;;;70.40;39.15;;;16.00;99.90;;;;;;5028644;28;20037;-70
2021/07/27 04:05:29;;;;;;;73.13;39.20;;;16.00;99.90;;;;;;5031815;28;20033;-70
2021/07/27 04:07:54;;;;;;;68.97;38.85;;;16.10;99.90;;;;;;5029560;28;20434;-70
2021/07/27 04:10:19;;;;;;;73.03;39.03;;;16.10;99.90;;;;;;5024912;28;20026;-70
2021/07/27 04:12:45;;;;;;;69.07;38.28;;;16.10;99.90;;;;;;5027172;28;20029;-70
2021/07/27 04:15:11;;;;;;;71.32;38.08;;;16.10;99.90;;;;;;5034886;28;20045;-70
2021/07/27 04:17:36;;;;;;;65.50;38.28;;;16.10;99.90;;;;;;5030731;28;20026;-69
2021/07/27 04:20:02;;;;;;;67.60;39.15;;;16.10;99.90;;;;;;5032313;28;20034;-69
2021/07/27 04:22:27;;;;;;;68.43;38.25;;;16.10;99.90;;;;;;5026140;28;20029;-69
2021/07/27 04:24:57;;;;;;;69.15;38.22;;;16.20;99.90;;;;;;5025796;28;20115;-69
2021/07/27 04:27:24;;;;;;;68.65;38.78;;;16.20;99.90;;;;;;5014517;28;20446;-70
2021/07/27 04:29:50;;;;;;;70.13;39.15;;;16.20;99.90;;;;;;5029479;28;20364;-70
2021/07/27 04:32:15;;;;;;;71.85;37.97;;;16.20;99.90;;;;;;5022545;28;20053;-70
2021/07/27 04:34:41;;;;;;;67.68;39.00;;;16.30;99.90;;;;;;5024203;28;20057;-70
2021/07/27 04:37:07;;;;;;;68.45;38.47;;;16.30;99.90;;;;;;5022049;28;20091;-70
2021/07/27 04:39:32;;;;;;;67.97;39.90;;;16.30;99.90;;;;;;5023540;28;20436;-69
2021/07/27 04:41:58;;;;;;;69.97;37.75;;;16.40;99.90;;;;;;5019598;28;20196;-69
2021/07/27 04:44:23;;;;;;;63.15;37.03;;;16.40;99.90;;;;;;5017587;28;20499;-70
2021/07/27 04:46:49;;;;;;;62.53;37.47;;;16.50;99.90;;;;;;5021988;28;20038;-70
2021/07/27 04:49:14;;;;;;;59.40;35.60;;;16.60;99.90;;;;;;5033764;28;20028;-70
2021/07/27 04:51:40;;;;;;;55.97;34.00;;;16.60;99.90;;;;;;5034111;28;20480;-70
2021/07/27 04:54:07;;;;;;;56.92;32.95;;;16.70;99.90;;;;;;5032970;28;20034;-71
2021/07/27 04:56:33;;;;;;;54.30;31.50;;;16.70;99.90;;;;;;5021849;28;20045;-69
2021/07/27 04:59:00;;;;;;;61.03;32.97;;;16.80;99.90;;;;;;5030720;28;20033;-69
2021/07/27 05:01:25;;;;;;;50.60;30.20;;;16.90;99.90;;;;;;5035986;28;20487;-70
2021/07/27 05:03:51;;;;;;;48.60;30.25;;;17.00;99.90;;;;;;5035190;28;20035;-70
2021/07/27 05:06:22;;;;;;;46.92;29.05;;;17.00;99.90;;;;;;5035957;28;20034;-70
2021/07/27 05:08:48;;;;;;;45.13;28.50;;;17.10;99.90;;;;;;5024512;28;20113;-70
2021/07/27 05:11:13;;;;;;;48.10;28.38;;;17.10;99.90;;;;;;5032263;28;20075;-69
2021/07/27 05:13:39;;;;;;;43.55;27.17;;;17.10;99.90;;;;;;5028024;28;20418;-70
2021/07/27 05:16:10;;;;;;;42.45;25.92;;;17.10;99.90;;;;;;5035842;28;20018;-70
2021/07/27 05:18:35;;;;;;;38.95;25.65;;;17.10;99.90;;;;;;5024867;28;20033;-71
2021/07/27 05:21:01;;;;;;;46.70;28.15;;;17.10;99.90;;;;;;5026085;28;20434;-71
2021/07/27 05:23:30;;;;;;;42.25;26.55;;;17.10;99.90;;;;;;5028771;28;20045;-70
2021/07/27 05:25:56;;;;;;;46.08;25.50;;;17.10;99.90;;;;;;5031120;28;20032;-69
2021/07/27 05:28:26;;;;;;;41.88;26.80;;;17.10;99.90;;;;;;5023734;28;20120;-70
2021/07/27 05:30:52;;;;;;;38.72;25.00;;;17.20;99.90;;;;;;5025616;28;21002;-69
2021/07/27 05:33:17;;;;;;;36.47;23.73;;;17.40;99.90;;;;;;5031486;28;20035;-69
2021/07/27 05:35:42;;;;;;;34.08;22.88;;;17.70;99.90;;;;;;5024815;28;20145;-69
2021/07/27 05:38:08;;;;;;;30.05;22.52;;;17.90;99.90;;;;;;5033716;28;20037;-69
2021/07/27 05:40:33;;;;;;;29.35;21.83;;;18.20;99.90;;;;;;5029448;28;20033;-70
2021/07/27 05:42:59;;;;;;;29.88;22.23;;;18.40;99.90;;;;;;5029313;28;20037;-70
2021/07/27 05:45:25;;;;;;;35.08;24.10;;;18.60;99.90;;;;;;5033114;28;20578;-69
2021/07/27 05:47:52;;;;;;;33.47;23.85;;;18.70;99.90;;;;;;5028384;28;20074;-69
2021/07/27 05:50:19;;;;;;;36.45;24.90;;;18.80;99.90;;;;;;5023853;28;20040;-70
2021/07/27 05:52:44;;;;;;;37.40;24.92;;;18.80;99.90;;;;;;5026573;28;20082;-70
2021/07/27 05:55:10;;;;;;;36.75;25.08;;;18.80;99.90;;;;;;5035342;28;20112;-70
2021/07/27 05:57:36;;;;;;;34.35;24.25;;;18.80;99.90;;;;;;5030902;28;20113;-69
2021/07/27 06:00:02;;;;;;;36.17;23.30;;;18.80;99.90;;;;;;5033597;28;20179;-69
2021/07/27 06:02:27;;;;;;;34.65;24.42;;;18.80;99.90;;;;;;5035013;28;20498;-69
2021/07/27 06:04:53;;;;;;;35.10;24.10;;;18.90;99.90;;;;;;5035089;28;20026;-69
2021/07/27 06:07:18;;;;;;;33.38;23.75;;;19.00;99.90;;;;;;5023098;28;20087;-70
2021/07/27 06:09:44;;;;;;;34.00;23.38;;;19.00;99.90;;;;;;5028872;28;20021;-71
2021/07/27 06:12:10;;;;;;;36.53;26.15;;;19.10;99.90;;;;;;5029634;28;20025;-70
2021/07/27 06:14:36;;;;;;;35.88;25.13;;;19.10;99.90;;;;;;5033234;28;20048;-69
2021/07/27 06:17:01;;;;;;;33.28;23.27;;;19.20;99.90;;;;;;5034078;28;20423;-69
2021/07/27 06:19:27;;;;;;;33.20;22.73;;;19.30;99.90;;;;;;5034481;28;20026;-68
2021/07/27 06:21:53;;;;;;;31.25;23.90;;;19.30;99.90;;;;;;5035009;28;20068;-69
2021/07/27 06:24:18;;;;;;;30.70;22.58;;;19.40;99.90;;;;;;5032483;28;20108;-68
2021/07/27 06:26:45;;;;;;;35.63;24.55;;;19.40;99.90;;;;;;5025466;28;20539;-69
2021/07/27 06:29:10;;;;;;;35.67;22.98;;;19.40;99.90;;;;;;5031741;28;20060;-70
2021/07/27 06:31:36;;;;;;;32.55;22.60;;;19.40;99.90;;;;;;5013340;28;20050;-68
2021/07/27 06:34:02;;;;;;;30.95;23.10;;;19.40;99.80;;;;;;5025113;28;20029;-69
2021/07/27 06:36:28;;;;;;;31.25;22.75;;;19.40;99.40;;;;;;5032174;28;20033;-69
2021/07/27 06:38:54;;;;;;;30.70;22.52;;;19.30;99.40;;;;;;5029783;28;20023;-69
2021/07/27 06:41:20;;;;;;;32.08;23.55;;;19.30;99.50;;;;;;5031012;28;20036;-69
2021/07/27 06:43:46;;;;;;;32.13;22.65;;;19.30;99.50;;;;;;5038677;28;20033;-69
2021/07/27 06:46:11;;;;;;;31.75;23.55;;;19.30;99.40;;;;;;5035975;28;20033;-69
2021/07/27 06:48:37;;;;;;;31.67;23.45;;;19.30;99.50;;;;;;5033652;28;20037;-70
2021/07/27 06:51:14;;;;;;;33.78;23.27;;;19.40;99.40;;;;;;5032793;28;20026;-69
2021/07/27 06:53:41;;;;;;;33.40;23.58;;;19.50;99.30;;;;;;5029790;28;20094;-69
2021/07/27 06:56:07;;;;;;;31.88;23.52;;;19.60;99.50;;;;;;5031374;28;20387;-69
2021/07/27 06:58:37;;;;;;;32.88;23.85;;;19.70;99.30;;;;;;5029717;28;20085;-69
2021/07/27 07:01:04;;;;;;;32.70;23.15;;;19.80;99.20;;;;;;5029283;28;20384;-69
2021/07/27 07:03:30;;;;;;;33.03;23.70;;;20.00;99.10;;;;;;5033533;28;20044;-69
2021/07/27 07:05:56;;;;;;;32.72;22.45;;;20.10;98.70;;;;;;5034268;28;20025;-70
2021/07/27 07:08:24;;;;;;;27.65;21.13;;;20.10;98.40;;;;;;5031174;28;20033;-69
2021/07/27 07:11:01;;;;;;;31.98;23.40;;;20.10;98.30;;;;;;5028353;28;20033;-69
2021/07/27 07:13:27;;;;;;;30.92;22.05;;;19.90;98.20;;;;;;5032532;28;20080;-69
2021/07/27 07:15:53;;;;;;;29.10;23.23;;;19.90;98.10;;;;;;5031708;28;20048;-69
2021/07/27 07:18:19;;;;;;;31.77;21.67;;;20.00;98.20;;;;;;5032668;28;20104;-69
2021/07/27 07:20:45;;;;;;;29.73;21.98;;;20.00;98.10;;;;;;5032318;28;20098;-69
2021/07/27 07:23:11;;;;;;;31.80;23.75;;;20.10;98.10;;;;;;5031793;28;20527;-69
2021/07/27 07:25:39;;;;;;;31.50;22.35;;;20.10;97.70;;;;;;5021298;28;20026;-70
2021/07/27 07:28:05;;;;;;;26.10;20.50;;;20.20;97.70;;;;;;5027152;28;20017;-70
2021/07/27 07:30:31;;;;;;;30.83;22.40;;;20.30;97.80;;;;;;5031864;28;20041;-69
2021/07/27 07:32:57;;;;;;;31.52;21.20;;;20.40;97.30;;;;;;5032955;28;20388;-70
2021/07/27 07:35:23;;;;;;;29.63;21.65;;;20.50;97.20;;;;;;5028634;28;20025;-69
2021/07/27 07:37:49;;;;;;;29.27;21.92;;;20.50;97.10;;;;;;5028264;28;20427;-71
2021/07/27 07:40:15;;;;;;;33.55;21.02;;;20.50;97.00;;;;;;5030231;28;20107;-71
2021/07/27 07:42:41;;;;;;;28.83;21.08;;;20.60;96.90;;;;;;5019431;28;20483;-70
2021/07/27 07:45:07;;;;;;;29.83;21.42;;;20.50;96.80;;;;;;5031400;28;20021;-71
2021/07/27 07:47:32;;;;;;;27.20;20.55;;;20.40;96.70;;;;;;5031895;28;20079;-71
2021/07/27 07:49:59;;;;;;;32.25;22.20;;;20.30;96.80;;;;;;5030306;28;20038;-70
2021/07/27 07:52:25;;;;;;;29.27;21.17;;;20.30;96.80;;;;;;5046422;28;20361;-70
2021/07/27 07:54:50;;;;;;;32.30;22.63;;;20.20;96.90;;;;;;5022313;28;20024;-70
2021/07/27 07:57:16;;;;;;;30.40;21.33;;;20.20;96.90;;;;;;5030982;28;20395;-71
2021/07/27 07:59:41;;;;;;;31.88;23.02;;;20.20;97.00;;;;;;5032032;28;20037;-70
2021/07/27 08:02:07;;;;;;;31.10;21.40;;;20.10;97.10;;;;;;5032117;28;20022;-71
2021/07/27 08:04:33;;;;;;;34.00;21.23;;;20.10;97.30;;;;;;5023759;28;20077;-71
2021/07/27 08:06:58;;;;;;;31.48;21.98;;;20.30;97.30;;;;;;5030749;28;20474;-70
2021/07/27 08:09:24;;;;;;;27.48;20.80;;;20.40;97.20;;;;;;5032417;28;20029;-71
2021/07/27 08:11:52;;;;;;;27.73;21.20;;;20.60;97.20;;;;;;5019120;28;20026;-70
2021/07/27 08:14:19;;;;;;;29.77;20.95;;;20.80;96.90;;;;;;5031400;28;20056;-70
2021/07/27 08:16:44;;;;;;;30.10;21.27;;;20.90;96.80;;;;;;5031292;28;20104;-70
2021/07/27 08:19:10;;;;;;;27.65;20.65;;;21.20;96.60;;;;;;5031356;28;20100;-70
2021/07/27 08:21:35;;;;;;;28.98;20.63;;;21.40;96.20;;;;;;5037114;28;20033;-70
2021/07/27 08:24:04;;;;;;;29.45;20.58;;;21.40;95.80;;;;;;5037610;28;20500;-71
2021/07/27 08:26:30;;;;;;;27.15;19.20;;;21.50;95.50;;;;;;5035108;28;20021;-70
2021/07/27 08:28:56;;;;;;;26.33;18.70;;;21.70;95.40;;;;;;5033404;28;20026;-70
2021/07/27 08:31:21;;;;;;;25.92;19.60;;;21.80;95.20;;;;;;5036482;28;20026;-71
2021/07/27 08:33:47;;;;;;;23.88;19.80;;;21.90;95.00;;;;;;5035922;28;20020;-70
2021/07/27 08:36:12;;;;;;;22.15;17.60;;;22.10;94.80;;;;;;5038287;28;20128;-69
2021/07/27 08:38:38;;;;;;;23.30;17.63;;;22.30;94.10;;;;;;5031686;28;20045;-69
2021/07/27 08:41:06;;;;;;;24.25;18.38;;;22.30;93.40;;;;;;5037875;28;20029;-70
2021/07/27 08:43:32;;;;;;;19.92;16.83;;;22.20;93.20;;;;;;5038849;28;20464;-69
2021/07/27 08:46:00;;;;;;;20.55;17.45;;;22.10;93.20;;;;;;5037682;28;20487;-71
2021/07/27 08:48:25;;;;;;;24.75;17.30;;;22.10;93.40;;;;;;5031170;28;20495;-69
2021/07/27 08:50:51;;;;;;;21.35;16.50;;;22.10;93.30;;;;;;5038928;28;20032;-69
2021/07/27 08:53:17;;;;;;;18.88;15.90;;;22.20;93.10;;;;;;5038595;28;20021;-70
2021/07/27 08:55:43;;;;;;;22.95;17.92;;;22.30;92.90;;;;;;5039041;28;20026;-70
2021/07/27 08:58:09;;;;;;;20.92;16.95;;;22.50;92.60;;;;;;5038478;28;20083;-71
2021/07/27 09:00:34;;;;;;;17.63;15.38;;;22.60;91.90;;;;;;5038403;28;20025;-70
2021/07/27 09:03:16;;;;;;;17.27;13.63;;;22.70;91.80;;;;;;5036857;28;20037;-70
2021/07/27 09:05:42;;;;;;;18.25;14.10;;;22.80;91.40;;;;;;5037983;28;20021;-70
2021/07/27 09:08:09;;;;;;;16.73;14.13;;;22.90;91.10;;;;;;5038474;28;20075;-70
2021/07/27 09:10:37;;;;;;;15.50;13.45;;;22.90;91.10;;;;;;5038165;28;20639;-69
2021/07/27 09:13:11;;;;;;;18.40;14.10;;;23.20;90.80;;;;;;5027522;28;20021;-70
2021/07/27 09:15:45;;;;;;;18.88;13.95;;;23.20;89.60;;;;;;5034190;28;20029;-70
2021/07/27 09:18:15;;;;;;;15.77;12.05;;;23.10;89.90;;;;;;5038125;28;20454;-69
2021/07/27 09:20:47;;;;;;;15.48;12.57;;;23.20;90.00;;;;;;5035829;28;20032;-69
2021/07/27 09:23:15;;;;;;;13.27;11.50;;;23.30;89.90;;;;;;5031826;28;20033;-68
2021/07/27 09:25:51;;;;;;;20.77;12.45;;;23.50;89.60;;;;;;5038999;28;20053;-69
2021/07/27 09:28:17;;;;;;;15.52;12.80;;;23.70;89.20;;;;;;5030152;28;20118;-70
2021/07/27 09:30:44;;;;;;;15.35;12.00;;;23.70;87.10;;;;;;5034603;28;20087;-68
2021/07/27 09:33:12;;;;;;;16.85;12.23;;;23.50;86.70;;;;;;5033580;28;20029;-70
2021/07/27 09:35:39;;;;;;;14.00;11.48;;;23.50;87.30;;;;;;5034129;28;20488;-69
2021/07/27 09:38:16;;;;;;;14.27;11.73;;;23.50;86.90;;;;;;5035164;28;20057;-69
2021/07/27 09:40:51;;;;;;;15.32;12.90;;;23.60;86.40;;;;;;5024790;28;20488;-69
2021/07/27 09:43:22;;;;;;;14.50;10.45;;;23.50;85.10;;;;;;5034198;28;20037;-69
2021/07/27 09:45:51;;;;;;;17.55;12.35;;;23.50;86.10;;;;;;5034177;28;20033;-70
2021/07/27 09:48:18;;;;;;;15.15;12.15;;;23.50;86.10;;;;;;5029416;28;20133;-69
2021/07/27 09:50:46;;;;;;;15.30;10.95;;;23.50;85.60;;;;;;5026436;28;20155;-70
2021/07/27 09:53:12;;;;;;;16.60;11.88;;;23.40;86.40;;;;;;5033017;28;20032;-71
2021/07/27 09:55:38;;;;;;;12.82;11.48;;;23.50;86.00;;;;;;5035618;28;20033;-70
2021/07/27 09:58:04;;;;;;;12.88;11.52;;;23.60;86.30;;;;;;5033261;28;20036;-70
2021/07/27 10:00:30;;;;;;;14.15;11.43;;;23.70;85.40;;;;;;5030736;28;20037;-69
2021/07/27 10:02:56;;;;;;;13.85;12.13;;;23.70;85.40;;;;;;5033491;28;20037;-69
2021/07/27 10:05:25;;;;;;;15.30;12.27;;;23.60;84.60;;;;;;5030783;28;20048;-70
2021/07/27 10:07:56;;;;;;;15.82;11.85;;;23.50;84.10;;;;;;5028400;28;20033;-70
2021/07/27 10:10:34;;;;;;;15.70;12.77;;;23.40;84.50;;;;;;5033366;28;20080;-70
2021/07/27 10:13:11;;;;;;;15.02;11.77;;;23.40;85.10;;;;;;5028241;28;20469;-70
2021/07/27 10:15:41;;;;;;;14.55;10.45;;;23.50;85.40;;;;;;5022528;28;20056;-69
2021/07/27 10:18:06;;;;;;;13.40;12.00;;;23.60;84.80;;;;;;5035031;28;20361;-68
2021/07/27 10:20:32;;;;;;;15.50;12.20;;;23.60;84.50;;;;;;5028205;28;20120;-68
2021/07/27 10:23:12;;;;;;;13.85;11.07;;;23.50;84.30;;;;;;5027841;28;20029;-69
2021/07/27 10:25:38;;;;;;;13.07;10.88;;;23.50;84.00;;;;;;5033109;28;20080;-68
2021/07/27 10:28:03;;;;;;;13.32;10.65;;;23.30;83.60;;;;;;5034120;28;20065;-71
2021/07/27 10:30:33;;;;;;;13.55;11.38;;;23.10;83.60;;;;;;5034324;28;20029;-70
2021/07/27 10:32:59;;;;;;;12.95;10.57;;;23.00;84.20;;;;;;5034802;28;20514;-68
2021/07/27 10:35:27;;;;;;;15.35;11.15;;;23.00;84.30;;;;;;5033773;28;20026;-70
2021/07/27 10:37:54;;;;;;;15.90;12.25;;;22.90;85.00;;;;;;5033139;28;20516;-69
2021/07/27 10:40:30;;;;;;;13.88;12.23;;;22.90;85.10;;;;;;5033665;28;20040;-68
2021/07/27 10:42:56;;;;;;;15.63;12.10;;;22.90;86.10;;;;;;5033268;28;20041;-68
2021/07/27 10:45:22;;;;;;;16.05;13.10;;;22.90;86.60;;;;;;5033007;28;20033;-68
2021/07/27 10:47:51;;;;;;;12.85;11.52;;;22.90;86.70;;;;;;5033481;28;20502;-71
2021/07/27 10:50:17;;;;;;;14.40;12.75;;;23.00;86.60;;;;;;5034232;28;20067;-70
2021/07/27 10:52:44;;;;;;;13.40;11.30;;;23.00;86.70;;;;;;5034201;28;20456;-70
2021/07/27 10:55:11;;;;;;;14.30;11.43;;;23.20;86.10;;;;;;5034200;28;20029;-67
2021/07/27 10:57:43;;;;;;;11.65;10.40;;;23.30;85.40;;;;;;5034300;28;20041;-67
2021/07/27 11:00:09;;;;;;;12.35;10.90;;;23.30;84.90;;;;;;5034037;28;20032;-69
2021/07/27 11:02:34;;;;;;;12.60;11.30;;;23.40;84.70;;;;;;5032660;28;20046;-68
2021/07/27 11:05:00;;;;;;;14.43;11.73;;;23.40;84.80;;;;;;5028885;28;20078;-69
2021/07/27 11:07:31;;;;;;;16.17;12.43;;;23.40;84.20;;;;;;5025700;28;20033;-68
2021/07/27 11:09:58;;;;;;;14.32;11.98;;;23.40;84.00;;;;;;5029459;28;20430;-70
2021/07/27 11:12:58;;;;;;;16.05;11.95;;;23.30;84.20;;;;;;5033689;28;20017;-71
2021/07/27 11:15:25;;;;;;;16.83;12.98;;;23.20;84.40;;;;;;5026447;28;20484;-69
2021/07/27 11:17:53;;;;;;;3.70;3.40;;;22.90;84.90;;;;;;5023949;28;20029;-70
2021/07/27 11:20:21;;;;;;;2.50;2.22;;;22.40;84.70;;;;;;5030961;28;20037;-69
2021/07/27 11:22:49;;;;;;;5.88;2.88;;;21.70;87.20;;;;;;5026024;28;20022;-70
2021/07/27 11:25:27;;;;;;;4.68;2.65;;;21.00;90.10;;;;;;5033433;28;20025;-68
2021/07/27 11:27:53;;;;;;;5.82;2.85;;;20.50;91.50;;;;;;5031904;28;20029;-69
2021/07/27 11:30:34;;;;;;;4.30;2.83;;;20.00;92.70;;;;;;5033520;28;20476;-69
2021/07/27 11:33:08;;;;;;;5.00;2.92;;;19.60;93.60;;;;;;5029892;28;20093;-69
2021/07/27 11:35:50;;;;;;;6.60;2.80;;;19.30;94.40;;;;;;5028116;28;20017;-68
2021/07/27 11:38:23;;;;;;;;;;;19.00;95.30;;;;;;5031224;28;20033;-68
2021/07/27 11:40:50;;;;;;;4.38;2.80;;;18.90;95.70;;;;;;5033123;28;20291;-67
2021/07/27 11:43:18;;;;;;;4.22;3.05;;;18.90;96.00;;;;;;5032951;28;20034;-70
2021/07/27 11:45:45;;;;;;;8.55;3.58;;;18.80;96.10;;;;;;5033386;28;20477;-69
2021/07/27 11:48:35;;;;;;;7.15;3.30;;;18.80;96.80;;;;;;5029134;28;20024;-70
2021/07/27 11:51:01;;;;;;;4.82;2.60;;;18.90;97.10;;;;;;5012474;28;20037;-69
2021/07/27 11:53:31;;;;;;;4.50;3.50;;;18.90;97.40;;;;;;5013314;28;20362;-69
2021/07/27 11:55:57;;;;;;;5.85;4.55;;;19.00;97.70;;;;;;5019743;28;20469;-69
2021/07/27 11:58:29;;;;;;;5.78;3.92;;;19.20;97.80;;;;;;5033237;28;20036;-68
2021/07/27 12:00:59;;;;;;;5.60;3.75;;;19.50;97.70;;;;;;5027241;28;20048;-68
2021/07/27 12:03:25;;;;;;;4.45;2.65;;;19.80;97.80;;;;;;5032531;28;20033;-68
2021/07/27 12:05:53;;;;;;;4.85;2.80;;;19.90;96.40;;;;;;5023607;28;20017;-68
2021/07/27 12:08:19;;;;;;;3.92;2.75;;;19.90;96.10;;;;;;5015823;28;20112;-69
2021/07/27 12:10:45;;;;;;;6.45;3.08;;;20.00;95.90;;;;;;5023057;28;20108;-67
2021/07/27 12:13:10;;;;;;;6.25;3.40;;;20.00;96.00;;;;;;5024534;28;20695;-68
2021/07/27 12:15:36;;;;;;;4.70;3.03;;;20.10;96.10;;;;;;5024085;28;20045;-68
2021/07/27 12:18:01;;;;;;;4.15;3.00;;;20.50;96.40;;;;;;5026270;28;20017;-67
2021/07/27 12:20:27;;;;;;;4.57;3.10;;;21.00;95.90;;;;;;5028425;28;20038;-68
2021/07/27 12:22:52;;;;;;;4.30;2.40;;;21.30;95.40;;;;;;5030508;28;20033;-65
2021/07/27 12:25:18;;;;;;;12.43;2.90;;;21.70;94.70;;;;;;5032212;28;20402;-67
2021/07/27 12:27:45;;;;;;;3.10;2.28;;;22.10;94.20;;;;;;5031833;28;20060;-67
2021/07/27 12:30:11;;;;;;;5.15;2.40;;;22.40;93.10;;;;;;5029873;28;20017;-67
2021/07/27 12:32:36;;;;;;;6.28;2.65;;;22.70;92.40;;;;;;5032859;28;20052;-69
2021/07/27 12:35:08;;;;;;;6.65;3.38;;;22.80;92.20;;;;;;5025054;28;20025;-71
2021/07/27 12:37:35;;;;;;;;;;;23.00;91.90;;;;;;5032773;28;20026;-71
2021/07/27 12:40:01;;;;;;;6.28;3.35;;;23.00;91.60;;;;;;5030354;28;20363;-69
2021/07/27 12:42:27;;;;;;;6.55;3.65;;;23.00;91.70;;;;;;5032054;28;20044;-69
2021/07/27 12:44:52;;;;;;;5.07;3.75;;;23.10;91.40;;;;;;5030038;28;20116;-69
2021/07/27 12:47:18;;;;;;;5.80;4.13;;;23.20;92.00;;;;;;5032496;28;20038;-70
2021/07/27 12:49:43;;;;;;;10.68;4.25;;;23.50;91.60;;;;;;5031495;28;20046;-70